Time;durP1;ratioP1;P1;durP2;ratioP2;P2;SDS_P1;SDS_P2;PMS_P1;PMS_P2;Temp;Humidity;BMP_temperature;BMP_pressure;BME280_temperature;BME280_humidity;BME280_pressure;Samples;Min_cycle;Max_cycle;Signal;HPM_P1;HPM_P2
2024/02/27 00:02:10;;;;;;;42.63;15.57;;;-0.10;100.00;;;;;;5045435;28;20145;-71
2024/02/27 00:04:36;;;;;;;45.00;15.93;;;-0.20;100.00;;;;;;5050467;28;20128;-71
2024/02/27 00:07:03;;;;;;;36.33;12.75;;;-0.30;100.00;;;;;;5050084;28;20056;-71
2024/02/27 00:09:30;;;;;;;30.25;12.20;;;-0.30;100.00;;;;;;5047168;28;20501;-71
2024/02/27 00:11:57;;;;;;;33.78;13.15;;;-0.40;100.00;;;;;;5047832;28;20049;-72
2024/02/27 00:14:25;;;;;;;39.45;12.85;;;-0.50;100.00;;;;;;5041313;28;20491;-71
2024/02/27 00:16:51;;;;;;;26.98;11.80;;;-0.60;100.00;;;;;;5043285;28;20465;-71
2024/02/27 00:19:18;;;;;;;36.83;12.90;;;-0.60;100.00;;;;;;5048232;28;20045;-71
2024/02/27 00:21:45;;;;;;;32.80;12.52;;;-0.70;100.00;;;;;;5043740;28;20709;-71
2024/02/27 00:24:12;;;;;;;41.53;15.27;;;-0.70;100.00;;;;;;5050391;28;20258;-71
2024/02/27 00:26:39;;;;;;;39.35;14.18;;;-0.70;100.00;;;;;;5041895;28;20057;-71
2024/02/27 00:29:06;;;;;;;47.30;15.15;;;-0.70;100.00;;;;;;5035973;28;20045;-71
2024/02/27 00:31:32;;;;;;;48.33;17.65;;;-0.70;100.00;;;;;;5045591;28;20819;-71
2024/02/27 00:33:59;;;;;;;56.15;16.63;;;-0.70;100.00;;;;;;5046654;28;20136;-71
2024/02/27 00:36:26;;;;;;;47.75;17.75;;;-0.70;100.00;;;;;;5046055;28;22065;-71
2024/02/27 00:38:54;;;;;;;44.70;17.13;;;-0.70;100.00;;;;;;5048273;28;20060;-71
2024/02/27 00:41:21;;;;;;;55.80;19.98;;;-0.70;100.00;;;;;;5049165;28;20124;-71
2024/02/27 00:43:48;;;;;;;64.70;21.75;;;-0.60;100.00;;;;;;5044997;28;20049;-71
2024/02/27 00:46:15;;;;;;;59.15;21.48;;;-0.60;100.00;;;;;;5056636;28;20089;-71
2024/02/27 00:48:42;;;;;;;62.88;22.10;;;-0.50;100.00;;;;;;5054876;28;20135;-71
2024/02/27 00:51:08;;;;;;;59.92;20.92;;;-0.50;100.00;;;;;;5045618;28;20110;-71
2024/02/27 00:53:35;;;;;;;64.30;22.17;;;-0.40;100.00;;;;;;5048688;28;20052;-71
2024/02/27 00:56:02;;;;;;;68.95;22.58;;;-0.40;100.00;;;;;;5048989;28;20052;-71
2024/02/27 00:58:29;;;;;;;62.45;20.02;;;-0.40;100.00;;;;;;5050459;28;20052;-71
2024/02/27 01:00:56;;;;;;;59.47;20.65;;;-0.40;100.00;;;;;;5047737;28;20480;-71
2024/02/27 01:03:23;;;;;;;66.68;21.95;;;-0.40;100.00;;;;;;5047581;28;20714;-71
2024/02/27 01:05:50;;;;;;;66.97;22.75;;;-0.40;100.00;;;;;;5046628;28;20049;-71
2024/02/27 01:08:17;;;;;;;65.82;21.73;;;-0.40;100.00;;;;;;5045094;28;20504;-71
2024/02/27 01:10:44;;;;;;;43.25;16.35;;;-0.40;100.00;;;;;;5055364;28;20142;-71
2024/02/27 01:13:10;;;;;;;40.42;15.85;;;-0.50;100.00;;;;;;5044459;28;20080;-71
2024/02/27 01:15:37;;;;;;;43.42;16.85;;;-0.60;100.00;;;;;;5050138;28;20083;-71
2024/02/27 01:18:04;;;;;;;51.47;17.63;;;-0.70;100.00;;;;;;5048185;28;20761;-71
2024/02/27 01:20:32;;;;;;;47.22;16.58;;;-0.80;100.00;;;;;;5053553;28;20053;-71
2024/02/27 01:22:59;;;;;;;45.08;16.17;;;-0.90;100.00;;;;;;5047930;28;20931;-71
2024/02/27 01:25:25;;;;;;;52.10;16.45;;;-1.00;100.00;;;;;;5054807;28;20044;-71
2024/02/27 01:27:52;;;;;;;43.90;15.23;;;-1.00;100.00;;;;;;5055216;28;20068;-71
2024/02/27 01:30:19;;;;;;;48.75;15.70;;;-1.00;100.00;;;;;;5044260;28;20087;-71
2024/02/27 01:32:46;;;;;;;47.08;15.10;;;-1.10;100.00;;;;;;5045138;28;20056;-71
2024/02/27 01:35:17;;;;;;;50.75;14.55;;;-1.10;100.00;;;;;;5044256;28;20044;-71
2024/02/27 01:37:45;;;;;;;45.85;16.48;;;-1.20;100.00;;;;;;5049848;28;20517;-71
2024/02/27 01:40:13;;;;;;;53.55;17.38;;;-1.20;100.00;;;;;;5050374;28;20530;-71
2024/02/27 01:42:44;;;;;;;53.05;18.83;;;-1.20;100.00;;;;;;5048421;28;20158;-71
2024/02/27 01:45:21;;;;;;;55.75;19.13;;;-1.20;100.00;;;;;;5047408;28;20041;-71
2024/02/27 01:47:51;;;;;;;56.10;19.10;;;-1.20;100.00;;;;;;5046372;28;20077;-71
2024/02/27 01:50:19;;;;;;;61.67;20.38;;;-1.10;100.00;;;;;;5044588;28;20064;-71
2024/02/27 01:52:46;;;;;;;62.78;22.17;;;-1.00;100.00;;;;;;5041225;28;20190;-71
2024/02/27 01:55:14;;;;;;;69.38;22.27;;;-0.80;100.00;;;;;;5047787;28;20060;-71
2024/02/27 01:57:42;;;;;;;95.13;23.73;;;-0.60;100.00;;;;;;5049251;28;20087;-71
2024/02/27 02:00:09;;;;;;;101.30;23.83;;;-0.40;100.00;;;;;;5055664;28;20106;-71
2024/02/27 02:02:37;;;;;;;314.75;31.92;;;-0.30;100.00;;;;;;5044969;28;20437;-71
2024/02/27 02:05:05;;;;;;;258.48;31.10;;;-0.20;100.00;;;;;;5045909;28;20758;-71
2024/02/27 02:07:34;;;;;;;151.30;24.83;;;-0.10;100.00;;;;;;5044940;28;20056;-71
2024/02/27 02:10:01;;;;;;;130.02;26.80;;;0.00;100.00;;;;;;5044234;28;20045;-71
2024/02/27 02:12:29;;;;;;;220.25;27.10;;;0.00;100.00;;;;;;5049152;28;20072;-71
2024/02/27 02:14:56;;;;;;;222.10;23.88;;;0.10;100.00;;;;;;5045355;28;20799;-71
2024/02/27 02:17:22;;;;;;;300.05;27.05;;;0.20;100.00;;;;;;5047121;28;20052;-71
2024/02/27 02:19:49;;;;;;;190.02;24.52;;;0.30;100.00;;;;;;5058074;28;20147;-71
2024/02/27 02:22:16;;;;;;;198.80;22.42;;;0.30;100.00;;;;;;5043874;28;20080;-71
2024/02/27 02:24:43;;;;;;;284.40;29.42;;;0.40;100.00;;;;;;5045388;28;20077;-71
2024/02/27 02:27:14;;;;;;;329.45;29.63;;;0.50;100.00;;;;;;5044546;28;20049;-71
2024/02/27 02:29:41;;;;;;;234.55;22.83;;;0.50;100.00;;;;;;5050899;28;20052;-71
2024/02/27 02:32:08;;;;;;;364.75;25.58;;;0.60;100.00;;;;;;5049552;28;20071;-71
2024/02/27 02:34:35;;;;;;;203.30;22.52;;;0.60;100.00;;;;;;5045076;28;20114;-71
2024/02/27 02:37:01;;;;;;;321.63;29.70;;;0.70;100.00;;;;;;5045947;28;20064;-71
2024/02/27 02:39:29;;;;;;;171.52;20.65;;;0.70;100.00;;;;;;5044630;28;20063;-71
2024/02/27 02:41:56;;;;;;;286.83;33.75;;;0.80;100.00;;;;;;5048259;28;20079;-71
2024/02/27 02:44:23;;;;;;;220.32;20.20;;;0.80;100.00;;;;;;5045905;28;20047;-71
2024/02/27 02:46:50;;;;;;;195.02;20.23;;;0.80;100.00;;;;;;5054600;28;20547;-71
2024/02/27 02:49:17;;;;;;;123.13;20.83;;;0.90;100.00;;;;;;5049511;28;20114;-71
2024/02/27 02:51:43;;;;;;;136.18;22.38;;;0.90;100.00;;;;;;5047977;28;20495;-71
2024/02/27 02:54:10;;;;;;;100.20;20.58;;;1.00;100.00;;;;;;5045807;28;20094;-71
2024/02/27 02:56:37;;;;;;;151.40;21.83;;;1.00;100.00;;;;;;5048024;28;20473;-71
2024/02/27 02:59:04;;;;;;;75.03;18.52;;;1.00;100.00;;;;;;5043227;28;20102;-71
2024/02/27 03:01:31;;;;;;;161.75;22.30;;;1.10;100.00;;;;;;5046175;28;20052;-72
2024/02/27 03:03:58;;;;;;;86.00;16.92;;;1.10;100.00;;;;;;5042066;28;20056;-71
2024/02/27 03:06:25;;;;;;;113.43;22.92;;;1.10;100.00;;;;;;5048463;28;20045;-71
2024/02/27 03:08:52;;;;;;;286.33;26.40;;;1.20;100.00;;;;;;5043681;28;20106;-71
2024/02/27 03:11:19;;;;;;;80.18;18.85;;;1.20;100.00;;;;;;5046780;28;20045;-71
2024/02/27 03:13:45;;;;;;;108.05;18.73;;;1.20;100.00;;;;;;5045895;28;20053;-71
2024/02/27 03:16:13;;;;;;;131.20;20.60;;;1.30;100.00;;;;;;5043621;28;20154;-71
2024/02/27 03:18:40;;;;;;;98.00;18.17;;;1.30;100.00;;;;;;5043999;28;20122;-71
2024/02/27 03:21:08;;;;;;;109.55;17.42;;;1.30;100.00;;;;;;5044138;28;20053;-71
2024/02/27 03:23:35;;;;;;;114.90;20.25;;;1.30;100.00;;;;;;5047359;28;20107;-71
2024/02/27 03:26:01;;;;;;;128.73;18.10;;;1.30;100.00;;;;;;5043278;28;20049;-71
2024/02/27 03:28:28;;;;;;;126.57;17.00;;;1.40;100.00;;;;;;5044345;28;20045;-71
2024/02/27 03:30:55;;;;;;;85.88;15.55;;;1.40;100.00;;;;;;5043589;28;20076;-71
2024/02/27 03:33:22;;;;;;;60.05;15.32;;;1.40;100.00;;;;;;5045351;28;20114;-71
2024/02/27 03:35:49;;;;;;;120.93;17.17;;;1.40;100.00;;;;;;5062239;28;20074;-71
2024/02/27 03:38:16;;;;;;;102.53;17.15;;;1.40;100.00;;;;;;5046416;28;20133;-71
2024/02/27 03:40:42;;;;;;;96.70;19.60;;;1.50;100.00;;;;;;5044142;28;20057;-71
2024/02/27 03:43:09;;;;;;;101.47;17.42;;;1.50;100.00;;;;;;5050488;28;20045;-71
2024/02/27 03:45:36;;;;;;;80.30;17.42;;;1.50;100.00;;;;;;5044703;28;20047;-70
2024/02/27 03:48:03;;;;;;;95.72;17.92;;;1.50;100.00;;;;;;5045917;28;20080;-71
2024/02/27 03:50:30;;;;;;;120.20;20.42;;;1.50;100.00;;;;;;5047299;28;20048;-70
2024/02/27 03:52:57;;;;;;;62.28;17.35;;;1.60;100.00;;;;;;5046302;28;20041;-71
2024/02/27 03:55:24;;;;;;;63.58;17.10;;;1.60;100.00;;;;;;5044109;28;20060;-71
2024/02/27 03:57:50;;;;;;;78.18;18.38;;;1.50;100.00;;;;;;5052060;28;20045;-71
2024/02/27 04:00:22;;;;;;;78.05;17.58;;;1.60;100.00;;;;;;5049093;28;20501;-71
2024/02/27 04:03:04;;;;;;;78.00;17.15;;;1.60;100.00;;;;;;5044766;28;20053;-78
2024/02/27 04:05:30;;;;;;;127.22;19.77;;;1.60;100.00;;;;;;5044202;28;20041;-78
2024/02/27 04:07:57;;;;;;;140.23;19.95;;;1.60;100.00;;;;;;5049636;28;20064;-79
2024/02/27 04:10:24;;;;;;;75.03;16.90;;;1.60;100.00;;;;;;5041405;28;20045;-78
2024/02/27 04:12:51;;;;;;;104.10;18.13;;;1.70;100.00;;;;;;5044206;28;20073;-78
2024/02/27 04:15:18;;;;;;;74.00;18.23;;;1.60;100.00;;;;;;5050820;28;20134;-78
2024/02/27 04:17:44;;;;;;;60.65;18.10;;;1.60;100.00;;;;;;5045079;28;20556;-78
2024/02/27 04:20:11;;;;;;;55.92;16.25;;;1.70;100.00;;;;;;5047883;28;20041;-78
2024/02/27 04:22:38;;;;;;;80.47;18.40;;;1.70;100.00;;;;;;5047400;28;20053;-78
2024/02/27 04:25:05;;;;;;;138.68;20.63;;;1.70;100.00;;;;;;5048320;28;20194;-78
2024/02/27 04:27:32;;;;;;;62.13;17.15;;;1.70;100.00;;;;;;5043055;28;20099;-78
2024/02/27 04:29:59;;;;;;;106.47;25.23;;;1.80;100.00;;;;;;5053751;28;20053;-79
2024/02/27 04:32:26;;;;;;;59.95;18.42;;;1.80;100.00;;;;;;5052096;28;20369;-79
2024/02/27 04:34:54;;;;;;;88.70;18.83;;;1.80;100.00;;;;;;5050193;28;20084;-79
2024/02/27 04:37:20;;;;;;;85.05;18.88;;;1.80;100.00;;;;;;5050321;28;20117;-78
2024/02/27 04:39:47;;;;;;;87.55;18.95;;;1.80;100.00;;;;;;5041915;28;20056;-78
2024/02/27 04:42:14;;;;;;;80.22;19.33;;;1.80;100.00;;;;;;5045595;28;20052;-78
2024/02/27 04:44:41;;;;;;;100.82;20.00;;;1.90;100.00;;;;;;5045311;28;20051;-78
2024/02/27 04:47:08;;;;;;;95.15;20.90;;;1.90;100.00;;;;;;5043331;28;20065;-78
2024/02/27 04:49:34;;;;;;;80.35;21.00;;;1.90;100.00;;;;;;5049002;28;20049;-79
2024/02/27 04:52:02;;;;;;;80.63;20.63;;;1.90;100.00;;;;;;5045966;28;20059;-78
2024/02/27 04:54:29;;;;;;;98.80;25.80;;;1.90;100.00;;;;;;5044120;28;20052;-78
2024/02/27 04:56:56;;;;;;;122.13;21.67;;;1.90;100.00;;;;;;5046964;28;20053;-78
2024/02/27 04:59:23;;;;;;;97.15;23.38;;;1.90;100.00;;;;;;5045079;28;20059;-78
2024/02/27 05:01:50;;;;;;;113.93;22.67;;;2.00;100.00;;;;;;5044522;28;20049;-78
2024/02/27 05:04:20;;;;;;;85.72;19.67;;;2.00;100.00;;;;;;5044596;28;20049;-79
2024/02/27 05:06:47;;;;;;;92.25;19.50;;;2.00;100.00;;;;;;5046367;28;20057;-79
2024/02/27 05:09:14;;;;;;;110.90;20.73;;;2.00;100.00;;;;;;5048330;28;20585;-79
2024/02/27 05:11:44;;;;;;;109.45;20.35;;;2.00;100.00;;;;;;5046383;28;20071;-79
2024/02/27 05:14:10;;;;;;;88.75;21.02;;;2.10;100.00;;;;;;5051566;28;20081;-79
2024/02/27 05:16:37;;;;;;;109.80;21.25;;;2.10;100.00;;;;;;5048074;28;20536;-79
2024/02/27 05:19:04;;;;;;;98.38;22.48;;;2.10;100.00;;;;;;5052123;28;20098;-85
2024/02/27 05:21:31;;;;;;;93.30;20.73;;;2.10;100.00;;;;;;5048581;28;20049;-79
2024/02/27 05:23:58;;;;;;;114.95;21.17;;;2.10;100.00;;;;;;5052656;28;20151;-80
2024/02/27 05:26:26;;;;;;;98.50;23.55;;;2.10;100.00;;;;;;5050975;28;20128;-79
2024/02/27 05:28:52;;;;;;;85.65;21.75;;;2.10;100.00;;;;;;5056677;28;20111;-79
2024/02/27 05:31:28;;;;;;;75.15;20.10;;;2.10;100.00;;;;;;5052888;28;20044;-79
2024/02/27 05:33:58;;;;;;;82.20;21.80;;;2.20;100.00;;;;;;5050477;28;20049;-79
2024/02/27 05:36:26;;;;;;;90.30;21.70;;;2.20;100.00;;;;;;5050502;28;20052;-79
2024/02/27 05:38:53;;;;;;;94.72;22.15;;;2.20;100.00;;;;;;5066415;28;20130;-79
2024/02/27 05:41:21;;;;;;;79.32;19.88;;;2.20;100.00;;;;;;5049142;28;20083;-79
2024/02/27 05:43:48;;;;;;;97.63;21.48;;;2.20;100.00;;;;;;5046244;28;20103;-78
2024/02/27 05:46:15;;;;;;;100.50;24.85;;;2.20;100.00;;;;;;5051878;28;20098;-78
2024/02/27 05:48:43;;;;;;;87.38;22.15;;;2.20;100.00;;;;;;5055531;28;20173;-79
2024/02/27 05:51:10;;;;;;;95.57;22.85;;;2.30;100.00;;;;;;5052299;28;20056;-78
2024/02/27 05:53:37;;;;;;;100.22;24.05;;;2.30;100.00;;;;;;5053328;28;20126;-77
2024/02/27 05:56:04;;;;;;;76.90;21.48;;;2.30;100.00;;;;;;5043752;28;20117;-77
2024/02/27 05:58:31;;;;;;;85.07;21.45;;;2.30;100.00;;;;;;5049481;28;20056;-79
2024/02/27 06:00:58;;;;;;;92.03;23.17;;;2.30;100.00;;;;;;5051786;28;20160;-81
2024/02/27 06:03:25;;;;;;;86.20;22.33;;;2.30;100.00;;;;;;5046457;28;20068;-79
2024/02/27 06:05:52;;;;;;;103.15;24.98;;;2.30;100.00;;;;;;5043568;28;20139;-71
2024/02/27 06:08:21;;;;;;;85.70;24.58;;;2.40;100.00;;;;;;5044557;28;20064;-75
2024/02/27 06:10:47;;;;;;;103.22;24.13;;;2.40;100.00;;;;;;5047080;28;20615;-76
2024/02/27 06:13:14;;;;;;;87.05;22.30;;;2.40;100.00;;;;;;5061954;28;20151;-78
2024/02/27 06:15:44;;;;;;;99.18;25.52;;;2.40;100.00;;;;;;5048846;28;20064;-74
2024/02/27 06:18:14;;;;;;;87.40;23.08;;;2.40;100.00;;;;;;5050412;28;20044;-75
2024/02/27 06:23:28;;;;;;;98.97;24.30;;;2.50;100.00;;;;;;5052319;28;20749;-78
2024/02/27 06:25:55;;;;;;;96.03;23.05;;;2.50;100.00;;;;;;5049788;28;20063;-78
2024/02/27 06:28:22;;;;;;;88.90;23.40;;;2.50;100.00;;;;;;5053323;28;20053;-80
2024/02/27 06:30:49;;;;;;;98.20;24.20;;;2.50;100.00;;;;;;5048590;28;20130;-78
2024/02/27 06:33:16;;;;;;;81.45;23.80;;;2.50;100.00;;;;;;5059079;28;20049;-77
2024/02/27 06:35:43;;;;;;;104.57;24.95;;;2.60;100.00;;;;;;5043788;28;20056;-77
2024/02/27 06:38:10;;;;;;;82.18;22.80;;;2.60;100.00;;;;;;5048534;28;20060;-77
2024/02/27 06:40:37;;;;;;;94.82;25.10;;;2.50;100.00;;;;;;5049798;28;20057;-77
2024/02/27 06:43:03;;;;;;;89.90;25.30;;;2.60;100.00;;;;;;5045533;28;20085;-76
2024/02/27 06:45:32;;;;;;;102.22;23.10;;;2.60;100.00;;;;;;5050587;28;20049;-77
2024/02/27 06:47:59;;;;;;;86.07;23.95;;;2.60;100.00;;;;;;5046577;28;20541;-70
2024/02/27 06:50:26;;;;;;;96.78;25.02;;;2.60;100.00;;;;;;5042735;28;20104;-70
2024/02/27 06:52:54;;;;;;;85.75;23.70;;;2.60;100.00;;;;;;5043408;28;20075;-70
2024/02/27 06:55:21;;;;;;;100.40;26.90;;;2.60;100.00;;;;;;5047273;28;20081;-70
2024/02/27 06:57:49;;;;;;;87.47;23.95;;;2.70;100.00;;;;;;5048655;28;20541;-71
2024/02/27 07:00:17;;;;;;;82.28;24.25;;;2.70;100.00;;;;;;5048389;28;20064;-70
2024/02/27 07:02:44;;;;;;;104.22;26.45;;;2.70;100.00;;;;;;5045058;28;20416;-70
2024/02/27 07:05:14;;;;;;;92.43;24.35;;;2.70;100.00;;;;;;5042404;28;20077;-70
2024/02/27 07:07:41;;;;;;;78.97;23.52;;;2.80;100.00;;;;;;5043701;28;20251;-70
2024/02/27 07:10:09;;;;;;;82.40;23.75;;;2.80;100.00;;;;;;5043974;28;20134;-72
2024/02/27 07:12:35;;;;;;;86.22;23.80;;;2.80;100.00;;;;;;5041071;28;20441;-71
2024/02/27 07:15:03;;;;;;;78.75;22.90;;;2.90;100.00;;;;;;5059403;28;21648;-74
2024/02/27 07:17:30;;;;;;;70.28;23.50;;;2.90;100.00;;;;;;5041513;28;20044;-76
2024/02/27 07:19:58;;;;;;;92.35;25.73;;;2.90;100.00;;;;;;5049072;28;20049;-78
2024/02/27 07:22:25;;;;;;;88.10;25.23;;;2.90;100.00;;;;;;5047842;28;20066;-75
2024/02/27 07:24:53;;;;;;;80.55;23.88;;;3.00;100.00;;;;;;5048211;28;20557;-74
2024/02/27 07:27:20;;;;;;;78.45;21.83;;;3.00;100.00;;;;;;5045846;28;20049;-75
2024/02/27 07:29:47;;;;;;;98.47;26.08;;;3.00;100.00;;;;;;5042708;28;20099;-75
2024/02/27 07:32:14;;;;;;;90.50;23.23;;;3.00;100.00;;;;;;5044419;28;20106;-78
2024/02/27 07:34:42;;;;;;;83.65;25.42;;;3.10;100.00;;;;;;5045357;28;20056;-76
2024/02/27 07:37:15;;;;;;;81.72;23.63;;;3.10;100.00;;;;;;5046696;28;20774;-80
2024/02/27 07:39:42;;;;;;;81.88;23.45;;;3.10;100.00;;;;;;5045510;28;20076;-73
2024/02/27 07:42:09;;;;;;;73.50;23.30;;;3.10;100.00;;;;;;5042219;28;20473;-72
2024/02/27 07:44:36;;;;;;;78.07;22.33;;;3.10;100.00;;;;;;5048187;28;20045;-72
2024/02/27 07:47:03;;;;;;;84.20;22.95;;;3.20;100.00;;;;;;5051517;28;20760;-72
2024/02/27 07:49:30;;;;;;;71.07;24.58;;;3.20;100.00;;;;;;5045989;28;20123;-72
2024/02/27 07:51:56;;;;;;;70.30;24.58;;;3.20;100.00;;;;;;5041697;28;20048;-72
2024/02/27 07:54:23;;;;;;;92.18;26.73;;;3.20;100.00;;;;;;5045628;28;20052;-72
2024/02/27 07:56:50;;;;;;;102.03;27.25;;;3.20;100.00;;;;;;5043646;28;20156;-72
2024/02/27 07:59:17;;;;;;;76.85;23.98;;;3.30;100.00;;;;;;5045354;28;20759;-72
2024/02/27 08:01:44;;;;;;;81.95;23.70;;;3.30;100.00;;;;;;5040323;28;20118;-72
2024/02/27 08:04:11;;;;;;;76.85;22.55;;;3.30;100.00;;;;;;5048511;28;20048;-72
2024/02/27 08:06:39;;;;;;;79.10;20.42;;;3.40;100.00;;;;;;5041710;28;20044;-72
2024/02/27 08:09:09;;;;;;;87.70;24.13;;;3.40;100.00;;;;;;5046306;28;20078;-72
2024/02/27 08:11:36;;;;;;;81.32;22.65;;;3.30;100.00;;;;;;5043431;28;20044;-71
2024/02/27 08:14:03;;;;;;;83.97;22.30;;;3.40;100.00;;;;;;5040223;28;20056;-72
2024/02/27 08:16:31;;;;;;;71.70;20.83;;;3.30;100.00;;;;;;5038802;28;20049;-72
2024/02/27 08:18:59;;;;;;;69.97;20.55;;;3.40;100.00;;;;;;5063717;28;20095;-72
2024/02/27 08:21:26;;;;;;;81.40;20.17;;;3.30;100.00;;;;;;5048284;28;20049;-72
2024/02/27 08:23:53;;;;;;;58.90;16.70;;;3.30;100.00;;;;;;5042963;28;20118;-72
2024/02/27 08:26:20;;;;;;;60.22;16.98;;;3.20;100.00;;;;;;5041489;28;20053;-72
2024/02/27 08:28:46;;;;;;;71.20;16.77;;;3.20;100.00;;;;;;5042270;28;20045;-72
2024/02/27 08:31:14;;;;;;;58.80;18.10;;;3.30;100.00;;;;;;5044056;28;20092;-72
2024/02/27 08:33:41;;;;;;;63.22;17.55;;;3.20;100.00;;;;;;5044097;28;20045;-72
2024/02/27 08:36:08;;;;;;;58.60;17.27;;;3.30;100.00;;;;;;5060003;28;20048;-72
2024/02/27 08:38:35;;;;;;;59.75;15.70;;;3.20;100.00;;;;;;5048849;28;20063;-73
2024/02/27 08:41:03;;;;;;;55.20;15.38;;;3.20;100.00;;;;;;5042320;28;20557;-73
2024/02/27 08:43:32;;;;;;;50.15;16.52;;;3.20;100.00;;;;;;5044575;28;20210;-72
2024/02/27 08:45:59;;;;;;;54.30;14.63;;;3.20;100.00;;;;;;5041034;28;20063;-72
2024/02/27 08:48:26;;;;;;;48.20;14.85;;;3.20;100.00;;;;;;5048752;28;20048;-73
2024/02/27 08:50:53;;;;;;;43.42;14.25;;;3.20;100.00;;;;;;5042078;28;20049;-73
2024/02/27 08:53:22;;;;;;;48.60;14.05;;;3.20;100.00;;;;;;5043474;28;20053;-73
2024/02/27 08:55:48;;;;;;;43.15;13.25;;;3.20;100.00;;;;;;5052199;28;20090;-73
2024/02/27 08:58:15;;;;;;;35.65;11.70;;;3.20;100.00;;;;;;5046122;28;20110;-73
2024/02/27 09:00:42;;;;;;;36.53;12.15;;;3.20;100.00;;;;;;5052105;28;20056;-73
2024/02/27 09:03:09;;;;;;;37.55;12.63;;;3.20;100.00;;;;;;5072876;28;20057;-73
2024/02/27 09:05:36;;;;;;;34.13;12.70;;;3.20;100.00;;;;;;5049305;28;20045;-73
2024/02/27 09:08:03;;;;;;;45.97;12.48;;;3.30;100.00;;;;;;5062121;28;20084;-73
2024/02/27 09:10:30;;;;;;;42.35;13.18;;;3.40;100.00;;;;;;5046360;28;20085;-73
2024/02/27 09:12:57;;;;;;;43.70;13.35;;;3.40;100.00;;;;;;5049355;28;20045;-73
2024/02/27 09:15:24;;;;;;;44.17;13.48;;;3.40;100.00;;;;;;5047521;28;20437;-72
2024/02/27 09:17:51;;;;;;;42.60;12.20;;;3.40;100.00;;;;;;5043660;28;20739;-72
2024/02/27 09:20:18;;;;;;;42.78;12.73;;;3.40;100.00;;;;;;5042400;28;20045;-72
2024/02/27 09:22:45;;;;;;;33.58;11.75;;;3.50;100.00;;;;;;5050870;28;20060;-72
2024/02/27 09:25:13;;;;;;;36.13;11.57;;;3.40;100.00;;;;;;5045085;28;20077;-72
2024/02/27 09:27:40;;;;;;;36.05;13.02;;;3.40;100.00;;;;;;5045658;28;20071;-72
2024/02/27 09:30:07;;;;;;;35.92;13.00;;;3.50;100.00;;;;;;5050851;28;20413;-72
2024/02/27 09:32:34;;;;;;;43.30;14.02;;;3.50;100.00;;;;;;5055722;28;20051;-72
2024/02/27 09:35:01;;;;;;;44.50;12.98;;;3.50;100.00;;;;;;5047032;28;20056;-72
2024/02/27 09:37:28;;;;;;;43.53;13.93;;;3.50;100.00;;;;;;5050259;28;20048;-72
2024/02/27 09:39:56;;;;;;;45.85;14.07;;;3.60;100.00;;;;;;5055472;28;20135;-72
2024/02/27 09:42:28;;;;;;;43.83;13.98;;;3.60;100.00;;;;;;5051442;28;20056;-72
2024/02/27 09:45:05;;;;;;;40.22;14.95;;;3.60;100.00;;;;;;5046182;28;20133;-72
2024/02/27 09:47:45;;;;;;;44.20;15.55;;;3.60;100.00;;;;;;5044877;28;20045;-72
2024/02/27 09:50:16;;;;;;;45.80;14.77;;;3.70;100.00;;;;;;5049016;28;20579;-71
2024/02/27 09:52:46;;;;;;;42.20;13.23;;;3.70;100.00;;;;;;5045603;28;20130;-76
2024/02/27 09:55:13;;;;;;;44.58;15.45;;;3.70;100.00;;;;;;5046615;28;20166;-73
2024/02/27 09:57:42;;;;;;;37.22;13.13;;;3.80;100.00;;;;;;5042533;28;20171;-77
2024/02/27 10:00:10;;;;;;;49.55;14.27;;;3.70;100.00;;;;;;5048466;28;20156;-78
2024/02/27 10:02:38;;;;;;;40.10;13.20;;;3.70;100.00;;;;;;5050159;28;20080;-77
2024/02/27 10:05:07;;;;;;;45.92;16.27;;;3.80;100.00;;;;;;5050149;28;20049;-77
2024/02/27 10:07:34;;;;;;;41.03;14.18;;;3.80;100.00;;;;;;5044412;28;20041;-75
2024/02/27 10:10:01;;;;;;;43.63;13.18;;;3.80;100.00;;;;;;5048519;28;20334;-77
2024/02/27 10:12:29;;;;;;;42.83;14.25;;;3.90;100.00;;;;;;5048137;28;20122;-77
2024/02/27 10:14:56;;;;;;;31.15;11.55;;;3.90;100.00;;;;;;5057473;28;20132;-77
2024/02/27 10:17:23;;;;;;;36.55;12.55;;;4.00;100.00;;;;;;5044752;28;20094;-74
2024/02/27 10:19:51;;;;;;;46.90;14.38;;;4.10;100.00;;;;;;5044166;28;20103;-74
2024/02/27 10:22:19;;;;;;;49.30;15.00;;;4.10;100.00;;;;;;5050196;28;20127;-74
2024/02/27 10:24:48;;;;;;;39.88;13.40;;;4.10;100.00;;;;;;5045677;28;20061;-74
2024/02/27 10:27:15;;;;;;;32.63;12.10;;;4.10;100.00;;;;;;5045269;28;20049;-74
2024/02/27 10:29:42;;;;;;;38.67;12.60;;;4.10;100.00;;;;;;5044477;28;20049;-74
2024/02/27 10:32:11;;;;;;;39.17;11.50;;;4.00;100.00;;;;;;5041388;22;20046;-72
2024/02/27 10:34:41;;;;;;;37.00;11.63;;;4.10;100.00;;;;;;5028017;28;20112;-71
2024/02/27 10:37:09;;;;;;;32.53;10.50;;;3.90;100.00;;;;;;5003319;28;20053;-72
2024/02/27 10:39:36;;;;;;;29.23;10.93;;;3.90;100.00;;;;;;4999914;28;20677;-72
2024/02/27 10:42:04;;;;;;;28.38;10.55;;;3.90;100.00;;;;;;4999020;28;20049;-72
2024/02/27 10:44:31;;;;;;;35.45;10.93;;;3.90;100.00;;;;;;5001844;28;20065;-72
2024/02/27 10:46:59;;;;;;;28.77;10.02;;;3.90;100.00;;;;;;4999925;28;20200;-72
2024/02/27 10:49:26;;;;;;;30.92;11.75;;;3.90;100.00;;;;;;5002161;28;20057;-72
2024/02/27 10:51:54;;;;;;;26.52;10.45;;;3.90;100.00;;;;;;5000326;28;20150;-72
2024/02/27 10:54:23;;;;;;;28.77;10.85;;;3.80;100.00;;;;;;5000942;28;20054;-72
2024/02/27 10:56:52;;;;;;;32.90;11.10;;;3.80;100.00;;;;;;4999307;28;20058;-72
2024/02/27 10:59:20;;;;;;;31.90;11.63;;;3.90;100.00;;;;;;5001308;28;20053;-72
2024/02/27 11:01:47;;;;;;;33.95;11.10;;;3.90;100.00;;;;;;5002220;28;20049;-72
2024/02/27 11:04:22;;;;;;;30.70;9.43;;;4.00;100.00;;;;;;5002400;28;20532;-72
2024/02/27 11:06:50;;;;;;;27.40;10.83;;;4.00;100.00;;;;;;5000548;28;20057;-72
2024/02/27 11:09:29;;;;;;;32.55;10.68;;;4.00;100.00;;;;;;5003706;28;20163;-72
2024/02/27 11:12:03;;;;;;;23.77;9.20;;;4.10;100.00;;;;;;5004849;28;20141;-72
2024/02/27 11:14:35;;;;;;;25.15;9.68;;;4.10;100.00;;;;;;4995244;28;20046;-72
2024/02/27 11:17:11;;;;;;;21.27;9.37;;;4.10;100.00;;;;;;5000719;28;20477;-72
2024/02/27 11:19:44;;;;;;;23.58;9.85;;;4.00;100.00;;;;;;5000516;28;20412;-72
2024/02/27 11:22:11;;;;;;;15.02;7.70;;;4.00;100.00;;;;;;5000457;28;20058;-72
2024/02/27 11:24:39;;;;;;;21.65;9.77;;;4.10;100.00;;;;;;5001552;28;20099;-72
2024/02/27 11:27:06;;;;;;;24.95;10.25;;;4.10;100.00;;;;;;5001285;28;20172;-72
2024/02/27 11:29:34;;;;;;;22.35;9.77;;;4.20;100.00;;;;;;4999864;28;20586;-72
2024/02/27 11:32:01;;;;;;;31.75;11.40;;;4.30;100.00;;;;;;4995226;28;20127;-72
2024/02/27 11:34:33;;;;;;;23.70;9.70;;;4.30;100.00;;;;;;4995502;28;20077;-72
2024/02/27 11:37:14;;;;;;;25.55;9.80;;;4.20;100.00;;;;;;5002696;28;20519;-72
2024/02/27 11:39:42;;;;;;;18.65;8.70;;;4.20;100.00;;;;;;4999585;28;20066;-72
2024/02/27 11:42:41;;;;;;;20.52;9.05;;;4.20;100.00;;;;;;5000841;28;20053;-74
2024/02/27 11:45:24;;;;;;;24.83;8.68;;;4.30;100.00;;;;;;4999520;28;20718;-72
2024/02/27 11:47:53;;;;;;;18.92;8.63;;;4.40;100.00;;;;;;4999878;28;20058;-72
2024/02/27 11:50:35;;;;;;;24.15;9.27;;;4.50;100.00;;;;;;4998988;28;20042;-72
2024/02/27 11:53:20;;;;;;;22.02;9.65;;;4.50;100.00;;;;;;4998526;28;20045;-73
2024/02/27 11:55:49;;;;;;;21.77;9.57;;;4.60;100.00;;;;;;5001117;28;20061;-72
2024/02/27 11:58:20;;;;;;;21.85;9.38;;;4.60;100.00;;;;;;5000752;28;20049;-72
2024/02/27 12:00:48;;;;;;;18.75;8.10;;;4.50;100.00;;;;;;5000689;28;20118;-72
2024/02/27 12:03:15;;;;;;;24.17;8.90;;;4.50;100.00;;;;;;4995227;28;20970;-73
2024/02/27 12:05:50;;;;;;;19.83;8.18;;;4.50;100.00;;;;;;4999134;28;20478;-72
2024/02/27 12:08:18;;;;;;;18.97;8.67;;;4.50;100.00;;;;;;4999805;28;20054;-72
2024/02/27 12:10:46;;;;;;;16.38;8.07;;;4.50;100.00;;;;;;5001599;28;20061;-72
2024/02/27 12:13:13;;;;;;;15.73;8.05;;;4.60;100.00;;;;;;4997483;28;20041;-73
2024/02/27 12:15:40;;;;;;;20.20;9.68;;;4.70;100.00;;;;;;5000456;28;20162;-73
2024/02/27 12:18:07;;;;;;;28.27;10.55;;;4.70;100.00;;;;;;5000205;28;20054;-72
2024/02/27 12:20:35;;;;;;;18.02;8.80;;;4.70;100.00;;;;;;5001293;28;20054;-73
2024/02/27 12:23:01;;;;;;;18.80;8.60;;;4.70;100.00;;;;;;5007210;28;20154;-73
2024/02/27 12:25:42;;;;;;;24.95;8.73;;;4.70;100.00;;;;;;5000699;28;20103;-73
2024/02/27 12:28:09;;;;;;;24.60;8.32;;;4.60;100.00;;;;;;5003487;28;20049;-73
2024/02/27 12:30:37;;;;;;;17.10;7.18;;;4.70;100.00;;;;;;5003477;28;20086;-73